createdAt,value
2017-08-11T00:01:53.819Z,14.10
2017-08-11T00:04:21.411Z,14.14
2017-08-11T00:06:49.032Z,14.20
2017-08-11T00:09:16.621Z,14.19
2017-08-11T00:11:44.256Z,14.21
2017-08-11T00:14:11.851Z,14.21
2017-08-11T00:16:39.949Z,14.23
2017-08-11T00:19:07.559Z,14.24
2017-08-11T00:21:35.154Z,14.24
2017-08-11T00:24:02.792Z,14.27
2017-08-11T00:26:30.395Z,14.30
2017-08-11T00:28:58.373Z,14.31
2017-08-11T00:31:25.957Z,14.30
2017-08-11T00:33:53.674Z,14.30
2017-08-11T00:36:21.284Z,14.32
2017-08-11T00:38:48.867Z,14.34
2017-08-11T00:41:16.509Z,14.37
2017-08-11T00:43:44.096Z,14.34
2017-08-11T00:46:11.708Z,14.34
2017-08-11T00:48:39.324Z,14.31
2017-08-11T00:51:06.949Z,14.31
2017-08-11T00:53:34.535Z,14.33
2017-08-11T00:56:02.530Z,14.29
2017-08-11T00:58:30.141Z,14.24
2017-08-11T01:00:57.806Z,14.24
2017-08-11T01:03:25.467Z,14.26
2017-08-11T01:05:53.127Z,14.23
2017-08-11T01:08:20.734Z,14.20
2017-08-11T01:10:48.358Z,14.20
2017-08-11T01:13:15.997Z,14.21
2017-08-11T01:15:43.648Z,14.21
2017-08-11T01:18:11.685Z,14.21
2017-08-11T01:20:39.811Z,14.24
2017-08-11T01:23:07.425Z,14.25
2017-08-11T01:25:35.029Z,14.21
2017-08-11T01:28:02.645Z,14.21
2017-08-11T01:30:30.311Z,14.17
2017-08-11T01:32:59.420Z,14.15
2017-08-11T01:35:27.389Z,14.16
2017-08-11T01:37:54.956Z,14.12
2017-08-11T01:40:22.554Z,14.08
2017-08-11T01:42:50.175Z,13.99
2017-08-11T01:45:17.840Z,13.95
2017-08-11T01:47:45.456Z,13.92
2017-08-11T01:50:13.057Z,13.88
2017-08-11T01:52:40.739Z,13.84
2017-08-11T01:55:08.459Z,13.81
2017-08-11T01:57:36.447Z,13.77
2017-08-11T02:00:04.058Z,13.81
2017-08-11T02:02:31.674Z,13.86
2017-08-11T02:04:59.281Z,13.89
2017-08-11T02:07:26.886Z,13.92
2017-08-11T02:09:54.503Z,13.93
2017-08-11T02:12:22.078Z,13.94
2017-08-11T02:14:49.986Z,13.88
2017-08-11T02:17:17.574Z,13.92
2017-08-11T02:19:45.175Z,13.91
2017-08-11T02:22:12.790Z,13.93
2017-08-11T02:24:40.379Z,13.97
2017-08-11T02:27:07.991Z,13.99
2017-08-11T02:29:35.580Z,13.99
2017-08-11T02:32:03.201Z,14.03
2017-08-11T02:34:30.920Z,14.02
2017-08-11T02:36:58.525Z,14.01
2017-08-11T02:39:26.134Z,14.01
2017-08-11T02:41:54.074Z,13.98
2017-08-11T02:44:21.667Z,13.99
2017-08-11T02:46:49.251Z,14.00
2017-08-11T02:49:16.858Z,13.98
2017-08-11T02:51:44.451Z,13.95
2017-08-11T02:54:12.102Z,13.94
2017-08-11T02:56:39.704Z,13.89
2017-08-11T02:59:07.691Z,13.90
2017-08-11T03:01:35.275Z,13.97
2017-08-11T03:04:02.847Z,13.97
2017-08-11T03:06:30.449Z,13.92
2017-08-11T03:08:58.042Z,13.89
2017-08-11T03:11:25.755Z,13.92
2017-08-11T03:13:54.731Z,13.96
2017-08-11T03:16:22.350Z,13.98
2017-08-11T03:18:49.920Z,14.00
2017-08-11T03:21:17.505Z,14.03
2017-08-11T03:23:45.246Z,14.05
2017-08-11T03:26:12.855Z,14.04
2017-08-11T03:28:40.885Z,14.05
2017-08-11T03:31:09.304Z,13.96
2017-08-11T03:33:36.878Z,13.96
2017-08-11T03:36:04.485Z,13.96
2017-08-11T03:38:32.163Z,13.96
2017-08-11T03:41:00.071Z,13.93
2017-08-11T03:43:27.670Z,13.88
2017-08-11T03:45:55.245Z,13.85
2017-08-11T03:48:22.871Z,13.84
2017-08-11T03:50:50.668Z,13.84
2017-08-11T03:53:18.469Z,13.85
2017-08-11T03:55:46.107Z,13.83
2017-08-11T03:58:13.807Z,13.81
2017-08-11T04:00:41.394Z,13.81
2017-08-11T04:03:10.285Z,13.77
2017-08-11T04:05:37.993Z,13.76
2017-08-11T04:08:05.584Z,13.77
2017-08-11T04:10:33.498Z,13.72
2017-08-11T04:13:01.113Z,13.72
2017-08-11T04:15:28.692Z,13.75
2017-08-11T04:17:56.308Z,13.77
2017-08-11T04:20:23.899Z,13.75
2017-08-11T04:22:51.528Z,13.73
2017-08-11T04:25:19.087Z,13.71
2017-08-11T04:27:47.036Z,13.72
2017-08-11T04:30:14.629Z,13.71
2017-08-11T04:32:42.340Z,13.71
2017-08-11T04:35:09.953Z,13.75
2017-08-11T04:37:37.660Z,13.79
2017-08-11T04:40:05.330Z,13.78
2017-08-11T04:42:33.008Z,13.79
2017-08-11T04:45:00.582Z,13.80
2017-08-11T04:47:28.195Z,13.83
2017-08-11T04:49:56.190Z,13.83
2017-08-11T04:52:23.792Z,13.83
2017-08-11T04:54:51.368Z,13.81
2017-08-11T04:57:19.188Z,13.80
2017-08-11T04:59:46.757Z,13.75
2017-08-11T05:02:14.384Z,13.74
2017-08-11T05:04:41.980Z,13.75
2017-08-11T05:07:09.616Z,13.78
2017-08-11T05:09:37.253Z,13.79
2017-08-11T05:12:04.867Z,13.78
2017-08-11T05:14:32.452Z,13.77
2017-08-11T05:17:00.061Z,13.76
2017-08-11T05:19:29.372Z,13.80
2017-08-11T05:21:57.921Z,13.82
2017-08-11T05:24:25.525Z,13.85
2017-08-11T05:26:53.130Z,13.92
2017-08-11T05:29:20.724Z,13.96
2017-08-11T05:31:48.706Z,14.01
2017-08-11T05:34:16.304Z,14.07
2017-08-11T05:36:44.327Z,14.02
2017-08-11T05:39:11.972Z,14.05
2017-08-11T05:41:39.585Z,14.08
2017-08-11T05:44:07.203Z,14.12
2017-08-11T05:46:34.819Z,14.15
2017-08-11T05:49:02.449Z,14.20
2017-08-11T05:51:30.139Z,14.17
2017-08-11T05:53:58.293Z,14.15
2017-08-11T05:56:25.897Z,14.15
2017-08-11T05:58:53.490Z,14.10
2017-08-11T06:01:21.114Z,14.08
2017-08-11T06:03:48.724Z,14.10
2017-08-11T06:06:16.345Z,14.13
2017-08-11T06:08:43.934Z,14.12
2017-08-11T06:11:11.533Z,14.11
2017-08-11T06:13:39.148Z,14.12
2017-08-11T06:16:06.940Z,14.08
2017-08-11T06:18:34.539Z,14.05
2017-08-11T06:21:02.457Z,14.05
2017-08-11T06:23:30.051Z,14.03
2017-08-11T06:25:57.758Z,14.04
2017-08-11T06:28:25.374Z,14.05
2017-08-11T06:30:52.977Z,14.03
2017-08-11T06:33:20.690Z,14.03
2017-08-11T06:35:48.288Z,14.04
2017-08-11T06:38:16.024Z,14.01
2017-08-11T06:40:43.764Z,14.00
2017-08-11T06:43:11.783Z,14.03
2017-08-11T06:45:39.519Z,14.04
2017-08-11T06:48:07.228Z,14.04
2017-08-11T06:50:34.852Z,14.08
2017-08-11T06:53:02.442Z,14.13
2017-08-11T06:55:30.103Z,14.13
2017-08-11T06:57:57.711Z,14.14
2017-08-11T07:00:25.340Z,14.15
2017-08-11T07:02:52.942Z,14.16
2017-08-11T07:05:20.558Z,14.15
2017-08-11T07:07:48.168Z,14.17
2017-08-11T07:10:16.401Z,14.24
2017-08-11T07:12:44.011Z,14.27
2017-08-11T07:15:11.644Z,14.26
2017-08-11T07:17:39.244Z,14.23
2017-08-11T07:20:06.840Z,14.22
2017-08-11T07:22:34.468Z,14.24
2017-08-11T07:25:02.329Z,14.26
2017-08-11T07:27:30.018Z,14.26
2017-08-11T07:29:57.724Z,14.24
2017-08-11T07:32:25.461Z,14.24
2017-08-11T07:34:53.064Z,14.22
2017-08-11T07:37:20.676Z,14.26
2017-08-11T07:39:48.302Z,14.27
2017-08-11T07:42:16.244Z,14.25
2017-08-11T07:44:43.992Z,14.30
2017-08-11T07:47:11.644Z,14.32
2017-08-11T07:49:39.245Z,14.35
2017-08-11T07:52:06.855Z,14.34
2017-08-11T07:54:34.482Z,14.38
2017-08-11T07:57:02.068Z,14.45
2017-08-11T07:59:29.713Z,14.48
2017-08-11T08:01:57.306Z,14.54
2017-08-11T08:04:25.304Z,14.57
2017-08-11T08:06:52.910Z,14.52
2017-08-11T08:09:20.666Z,14.47
2017-08-11T08:11:48.297Z,14.48
2017-08-11T08:14:15.925Z,14.46
2017-08-11T08:16:43.558Z,14.53
2017-08-11T08:19:11.206Z,14.58
2017-08-11T08:21:38.962Z,14.63
2017-08-11T08:24:06.585Z,14.66
2017-08-11T08:26:34.195Z,14.69
2017-08-11T08:29:01.840Z,14.68
2017-08-11T08:31:29.504Z,14.66
2017-08-11T08:33:57.119Z,14.54
2017-08-11T08:36:25.776Z,14.50
2017-08-11T08:38:53.387Z,14.53
2017-08-11T08:41:20.992Z,14.49
2017-08-11T08:43:49.103Z,14.61
2017-08-11T08:46:16.678Z,14.74
2017-08-11T08:48:44.331Z,14.80
2017-08-11T08:51:12.035Z,14.88
2017-08-11T08:53:39.701Z,14.93
2017-08-11T08:56:07.314Z,14.93
2017-08-11T08:58:35.074Z,14.92
2017-08-11T09:01:02.705Z,14.90
2017-08-11T09:03:30.308Z,14.88
2017-08-11T09:05:58.140Z,14.88
2017-08-11T09:08:25.818Z,14.84
2017-08-11T09:10:53.552Z,14.75
2017-08-11T09:13:21.316Z,14.69
2017-08-11T09:15:48.936Z,14.71
2017-08-11T09:18:16.582Z,14.77
2017-08-11T09:20:44.194Z,14.80
2017-08-11T09:23:11.873Z,14.85
2017-08-11T09:25:51.415Z,14.84
2017-08-11T09:28:44.663Z,14.85
2017-08-11T09:31:24.013Z,14.88
2017-08-11T09:34:03.485Z,14.97
2017-08-11T09:36:36.499Z,15.01
2017-08-11T09:39:04.104Z,14.99
2017-08-11T09:41:31.712Z,14.95
2017-08-11T09:43:59.351Z,14.89
2017-08-11T09:46:27.004Z,14.86
2017-08-11T09:48:54.701Z,14.89
2017-08-11T09:51:22.294Z,14.88
2017-08-11T09:53:49.941Z,14.89
2017-08-11T09:56:17.588Z,14.88
2017-08-11T09:58:45.562Z,14.91
2017-08-11T10:01:13.163Z,14.92
2017-08-11T10:03:40.746Z,14.91
2017-08-11T10:06:08.432Z,14.98
2017-08-11T10:08:36.203Z,15.01
2017-08-11T10:11:03.911Z,15.02
2017-08-11T10:13:31.527Z,15.04
2017-08-11T10:15:59.254Z,15.10
2017-08-11T10:18:27.004Z,15.15
2017-08-11T10:20:54.929Z,15.17
2017-08-11T10:23:22.532Z,15.19
2017-08-11T10:25:50.291Z,15.19
2017-08-11T10:28:17.902Z,15.18
2017-08-11T10:30:45.498Z,15.15
2017-08-11T10:33:13.164Z,15.13
2017-08-11T10:35:40.803Z,15.09
2017-08-11T10:38:08.410Z,15.08
2017-08-11T10:40:36.188Z,15.07
2017-08-11T10:43:03.817Z,15.06
2017-08-11T10:45:31.496Z,15.06
2017-08-11T10:47:59.541Z,15.02
2017-08-11T10:50:33.923Z,14.99
2017-08-11T10:53:01.773Z,14.98
2017-08-11T10:55:29.459Z,14.99
2017-08-11T10:57:57.110Z,15.01
2017-08-11T11:00:24.754Z,15.00
2017-08-11T11:02:52.386Z,14.96
2017-08-11T11:05:20.017Z,14.98
2017-08-11T11:07:47.864Z,14.94
2017-08-11T11:10:15.792Z,14.97
2017-08-11T11:12:43.377Z,14.98
2017-08-11T11:15:11.396Z,14.96
2017-08-11T11:17:38.980Z,14.97
2017-08-11T11:20:06.584Z,15.01
2017-08-11T11:22:34.340Z,15.01
2017-08-11T11:25:01.940Z,15.00
2017-08-11T11:27:29.584Z,15.00
2017-08-11T11:29:58.658Z,14.96
2017-08-11T11:32:26.319Z,14.96
2017-08-11T11:34:53.975Z,14.97
2017-08-11T11:37:21.672Z,14.95
2017-08-11T11:39:49.393Z,14.91
2017-08-11T11:42:17.169Z,14.85
2017-08-11T11:44:45.200Z,14.79
2017-08-11T11:47:12.903Z,14.82
2017-08-11T11:49:40.652Z,14.84
2017-08-11T11:52:08.394Z,14.82
2017-08-11T11:54:35.990Z,14.83
2017-08-11T11:57:03.610Z,14.88
2017-08-11T11:59:31.213Z,14.90
2017-08-11T12:01:58.833Z,14.97
2017-08-11T12:04:26.422Z,15.03
2017-08-11T12:06:54.177Z,15.11
2017-08-11T12:09:21.784Z,15.17
2017-08-11T12:11:49.478Z,15.19
2017-08-11T12:14:17.101Z,15.23
2017-08-11T12:16:44.755Z,15.29
2017-08-11T12:19:12.503Z,15.36
2017-08-11T12:21:40.126Z,15.42
2017-08-11T12:24:07.714Z,15.39
2017-08-11T12:26:35.354Z,15.43
2017-08-11T12:29:03.017Z,15.47
2017-08-11T12:31:30.623Z,15.56
2017-08-11T12:33:58.303Z,15.58
2017-08-11T12:36:25.918Z,15.53
2017-08-11T12:38:53.815Z,15.49
2017-08-11T12:41:21.459Z,15.43
2017-08-11T12:43:49.145Z,15.36
2017-08-11T12:46:16.773Z,15.28
2017-08-11T12:48:44.505Z,15.16
2017-08-11T12:51:12.198Z,15.12
2017-08-11T12:53:39.789Z,15.12
2017-08-11T12:56:07.425Z,15.10
2017-08-11T12:58:35.165Z,15.09
2017-08-11T13:01:02.765Z,15.09
2017-08-11T13:03:30.379Z,15.10
2017-08-11T13:05:58.006Z,15.10
2017-08-11T13:08:25.720Z,15.07
2017-08-11T13:10:53.414Z,15.10
2017-08-11T13:13:21.072Z,15.08
2017-08-11T13:15:48.736Z,15.09
2017-08-11T13:18:16.364Z,15.14
2017-08-11T13:20:45.562Z,15.12
2017-08-11T13:23:13.172Z,15.09
2017-08-11T13:25:44.869Z,15.09
2017-08-11T13:28:13.469Z,15.06
2017-08-11T13:30:41.170Z,15.04
2017-08-11T13:33:09.079Z,15.03
2017-08-11T13:35:36.669Z,15.02
2017-08-11T13:38:04.450Z,14.98
2017-08-11T13:40:32.068Z,15.00
2017-08-11T13:42:59.797Z,15.00
2017-08-11T13:45:27.614Z,14.99
2017-08-11T13:47:55.227Z,15.08
2017-08-11T13:50:23.224Z,15.12
2017-08-11T13:52:50.824Z,15.11
2017-08-11T13:55:18.432Z,15.08
2017-08-11T13:57:46.249Z,15.13
2017-08-11T14:00:13.890Z,15.13
2017-08-11T14:02:41.659Z,15.13
2017-08-11T14:05:09.263Z,15.14
2017-08-11T14:07:37.361Z,15.14
2017-08-11T14:10:04.978Z,15.14
2017-08-11T14:12:32.629Z,15.12
2017-08-11T14:15:01.353Z,15.06
2017-08-11T14:17:29.098Z,15.02
2017-08-11T14:19:57.038Z,15.01
2017-08-11T14:22:24.644Z,14.99
2017-08-11T14:24:52.248Z,14.99
2017-08-11T14:27:19.902Z,15.01
2017-08-11T14:29:47.506Z,15.00
2017-08-11T14:32:15.144Z,15.01
2017-08-11T14:34:42.759Z,15.04
2017-08-11T14:37:10.702Z,15.03
2017-08-11T14:39:38.302Z,15.07
2017-08-11T14:42:05.894Z,15.11
2017-08-11T14:44:33.668Z,15.16
2017-08-11T14:47:01.265Z,15.24
2017-08-11T14:49:28.918Z,15.31
2017-08-11T14:51:56.596Z,15.39
2017-08-11T14:54:24.513Z,15.46
2017-08-11T14:56:52.241Z,15.51
2017-08-11T14:59:19.868Z,15.59
2017-08-11T15:01:47.511Z,15.64
2017-08-11T15:04:15.137Z,15.61
2017-08-11T15:06:43.111Z,15.63
2017-08-11T15:09:10.810Z,15.68
2017-08-11T15:11:38.421Z,15.70
2017-08-11T15:14:06.075Z,15.78
2017-08-11T15:16:33.695Z,15.84
2017-08-11T15:19:01.310Z,15.84
2017-08-11T15:21:29.012Z,15.83
2017-08-11T15:23:56.957Z,15.84
2017-08-11T15:26:24.599Z,15.89
2017-08-11T15:28:52.249Z,15.97
2017-08-11T15:31:19.943Z,16.01
2017-08-11T15:33:47.564Z,16.04
2017-08-11T15:36:15.201Z,16.06
2017-08-11T15:38:42.816Z,16.15
2017-08-11T15:41:10.790Z,16.20
2017-08-11T15:43:38.426Z,16.20
2017-08-11T15:46:06.034Z,16.08
2017-08-11T15:48:33.644Z,16.07
2017-08-11T15:51:01.247Z,15.99
2017-08-11T15:53:28.934Z,15.88
2017-08-11T15:55:56.535Z,15.81
2017-08-11T15:58:26.018Z,15.73
2017-08-11T16:00:53.800Z,15.63
2017-08-11T16:03:21.389Z,15.58
2017-08-11T16:05:49.187Z,15.54
2017-08-11T16:08:16.831Z,15.53
2017-08-11T16:10:44.929Z,15.52
2017-08-11T16:13:12.550Z,15.51
2017-08-11T16:15:41.197Z,15.52
2017-08-11T16:18:08.811Z,15.53
2017-08-11T16:20:41.514Z,15.57
2017-08-11T16:23:10.501Z,15.57
2017-08-11T16:25:41.543Z,15.56
2017-08-11T16:28:09.474Z,15.53
2017-08-11T16:30:37.082Z,15.59
2017-08-11T16:33:04.672Z,15.62
2017-08-11T16:35:32.310Z,15.61
2017-08-11T16:37:59.898Z,15.64
2017-08-11T16:40:27.907Z,15.72
2017-08-11T16:42:55.501Z,15.77
2017-08-11T16:45:23.597Z,15.84
2017-08-11T16:47:52.288Z,15.90
2017-08-11T16:50:22.270Z,15.91
2017-08-11T16:52:49.891Z,15.88
2017-08-11T16:55:18.100Z,15.79
2017-08-11T16:57:49.651Z,15.71
2017-08-11T17:00:17.407Z,15.69
2017-08-11T17:02:46.159Z,15.71
2017-08-11T17:05:16.241Z,15.72
2017-08-11T17:07:43.891Z,15.70
2017-08-11T17:10:11.513Z,15.64
2017-08-11T17:12:39.123Z,15.63
2017-08-11T17:15:07.314Z,15.65
2017-08-11T17:17:35.816Z,15.62
2017-08-11T17:20:03.433Z,15.62
2017-08-11T17:22:31.082Z,15.62
2017-08-11T17:24:59.970Z,15.63
2017-08-11T17:27:29.031Z,15.61
2017-08-11T17:29:57.321Z,15.62
2017-08-11T17:32:25.292Z,15.60
2017-08-11T17:34:53.812Z,15.57
2017-08-11T17:37:21.403Z,15.54
2017-08-11T17:39:49.025Z,15.51
2017-08-11T17:42:16.635Z,15.50
2017-08-11T17:44:44.289Z,15.49
2017-08-11T17:47:11.920Z,15.47
2017-08-11T17:49:39.525Z,15.43
2017-08-11T17:52:07.183Z,15.41
2017-08-11T17:54:34.797Z,15.39
2017-08-11T17:57:02.740Z,15.38
2017-08-11T17:59:30.469Z,15.38
2017-08-11T18:01:58.115Z,15.36
2017-08-11T18:04:25.745Z,15.34
2017-08-11T18:06:53.350Z,15.32
2017-08-11T18:09:21.154Z,15.30
2017-08-11T18:11:48.786Z,15.27
2017-08-11T18:14:16.837Z,15.24
2017-08-11T18:16:44.508Z,15.22
2017-08-11T18:19:12.116Z,15.19
2017-08-11T18:21:39.876Z,15.18
2017-08-11T18:24:07.486Z,15.18
2017-08-11T18:26:36.339Z,15.16
2017-08-11T18:29:03.951Z,15.14
2017-08-11T18:31:31.670Z,15.14
2017-08-11T18:34:00.902Z,15.09
2017-08-11T18:36:28.530Z,15.08
2017-08-11T18:38:56.160Z,15.08
2017-08-11T18:41:23.901Z,15.06
2017-08-11T18:43:51.516Z,15.04
2017-08-11T18:46:19.149Z,15.01
2017-08-11T18:48:47.054Z,14.99
2017-08-11T18:51:14.645Z,14.97
2017-08-11T18:53:42.472Z,14.95
2017-08-11T18:56:10.137Z,14.94
2017-08-11T18:58:39.468Z,14.95
2017-08-11T19:01:07.078Z,14.88
2017-08-11T19:03:34.766Z,14.86
2017-08-11T19:06:02.411Z,14.85
2017-08-11T19:08:30.033Z,14.81
2017-08-11T19:10:57.686Z,14.76
2017-08-11T19:13:25.313Z,14.74
2017-08-11T19:15:53.183Z,14.72
2017-08-11T19:18:21.363Z,14.68
2017-08-11T19:20:49.007Z,14.67
2017-08-11T19:23:16.632Z,14.65
2017-08-11T19:25:45.789Z,14.63
2017-08-11T19:28:13.448Z,14.59
2017-08-11T19:30:42.337Z,14.54
2017-08-11T19:33:10.163Z,14.54
2017-08-11T19:35:37.777Z,14.51
2017-08-11T19:38:07.170Z,14.50
2017-08-11T19:40:34.793Z,14.48
2017-08-11T19:43:02.997Z,14.47
2017-08-11T19:45:31.956Z,14.47
2017-08-11T19:48:01.171Z,14.47
2017-08-11T19:50:30.165Z,14.46
2017-08-11T19:52:57.807Z,14.43
2017-08-11T19:55:25.407Z,14.43
2017-08-11T19:57:53.028Z,14.43
2017-08-11T20:00:20.640Z,14.41
2017-08-11T20:02:50.153Z,14.44
2017-08-11T20:05:17.807Z,14.44
2017-08-11T20:07:46.160Z,14.44
2017-08-11T20:10:14.740Z,14.45
2017-08-11T20:12:42.355Z,14.46
2017-08-11T20:15:09.978Z,14.47
2017-08-11T20:17:37.574Z,14.46
2017-08-11T20:20:05.196Z,14.47
2017-08-11T20:22:32.848Z,14.45
2017-08-11T20:25:00.422Z,14.47
2017-08-11T20:27:28.179Z,14.49
2017-08-11T20:29:57.394Z,14.49
2017-08-11T20:32:25.028Z,14.47
2017-08-11T20:34:52.620Z,14.51
2017-08-11T20:37:23.073Z,14.49
2017-08-11T20:39:53.329Z,14.48
2017-08-11T20:42:20.971Z,14.46
2017-08-11T20:44:48.568Z,14.44
2017-08-11T20:47:16.217Z,14.42
2017-08-11T20:49:43.900Z,14.36
2017-08-11T20:52:11.941Z,14.34
2017-08-11T20:54:39.634Z,14.34
2017-08-11T20:57:07.237Z,14.34
2017-08-11T20:59:34.851Z,14.33
2017-08-11T21:02:02.454Z,14.40
2017-08-11T21:04:30.079Z,14.38
2017-08-11T21:06:58.171Z,14.40
2017-08-11T21:09:28.887Z,14.41
2017-08-11T21:11:56.536Z,14.44
2017-08-11T21:14:24.180Z,14.45
2017-08-11T21:16:52.330Z,14.47
2017-08-11T21:19:19.920Z,14.47
2017-08-11T21:21:47.633Z,14.47
2017-08-11T21:24:15.269Z,14.49
2017-08-11T21:26:42.875Z,14.50
2017-08-11T21:29:10.595Z,14.49
2017-08-11T21:31:38.374Z,14.50
2017-08-11T21:34:06.392Z,14.50
2017-08-11T21:36:33.979Z,14.47
2017-08-11T21:39:01.652Z,14.45
2017-08-11T21:41:29.271Z,14.45
2017-08-11T21:43:56.976Z,14.43
2017-08-11T21:46:24.594Z,14.42
2017-08-11T21:48:52.187Z,14.42
2017-08-11T21:51:20.162Z,14.42
2017-08-11T21:53:48.542Z,14.41
2017-08-11T21:56:16.148Z,14.41
2017-08-11T21:58:43.801Z,14.39
2017-08-11T22:01:11.430Z,14.42
2017-08-11T22:03:39.043Z,14.43
2017-08-11T22:06:06.654Z,14.43
2017-08-11T22:08:34.588Z,14.42
2017-08-11T22:11:02.203Z,14.42
2017-08-11T22:13:29.950Z,14.40
2017-08-11T22:15:57.552Z,14.39
2017-08-11T22:18:25.257Z,14.36
2017-08-11T22:20:52.941Z,14.34
2017-08-11T22:23:20.696Z,14.33
2017-08-11T22:25:48.338Z,14.34
2017-08-11T22:28:15.923Z,14.31
2017-08-11T22:30:43.556Z,14.32
2017-08-11T22:33:11.154Z,14.35
2017-08-11T22:35:38.753Z,14.38
2017-08-11T22:38:06.400Z,14.39
2017-08-11T22:40:34.132Z,14.40
2017-08-11T22:43:01.784Z,14.41
2017-08-11T22:45:29.376Z,14.41
2017-08-11T22:47:56.988Z,14.42
2017-08-11T22:50:24.584Z,14.41
2017-08-11T22:52:52.239Z,14.42
2017-08-11T22:55:19.829Z,14.43
2017-08-11T22:57:47.438Z,14.44
2017-08-11T23:00:15.083Z,14.46
2017-08-11T23:02:43.057Z,14.47
2017-08-11T23:05:10.659Z,14.47
2017-08-11T23:07:38.267Z,14.48
2017-08-11T23:10:05.909Z,14.47
2017-08-11T23:12:33.513Z,14.47
2017-08-11T23:15:01.157Z,14.44
2017-08-11T23:17:28.773Z,14.45
2017-08-11T23:19:56.602Z,14.45
2017-08-11T23:22:24.195Z,14.45
2017-08-11T23:24:51.789Z,14.44
2017-08-11T23:27:19.368Z,14.46
2017-08-11T23:29:47.267Z,14.47
2017-08-11T23:32:14.874Z,14.48
2017-08-11T23:34:42.450Z,14.46
2017-08-11T23:37:10.640Z,14.45
2017-08-11T23:39:38.347Z,14.47
2017-08-11T23:42:05.967Z,14.48
2017-08-11T23:44:33.586Z,14.50
2017-08-11T23:47:01.322Z,14.50
2017-08-11T23:49:28.916Z,14.51
2017-08-11T23:51:56.535Z,14.49
2017-08-11T23:54:24.208Z,14.48
2017-08-11T23:56:51.825Z,14.48
2017-08-11T23:59:19.524Z,14.49
